sensor_id;sensor_type;location;lat;lon;timestamp;temperature;humidity
35305;DHT22;26433;48.034;-1.764;2023-11-21T00:08:07;13.90;99.90
35305;DHT22;26433;48.034;-1.764;2023-11-21T00:23:21;14.10;99.90
35305;DHT22;26433;48.034;-1.764;2023-11-21T00:28:25;14.00;99.90
35305;DHT22;26433;48.034;-1.764;2023-11-21T00:33:29;14.40;99.90
35305;DHT22;26433;48.034;-1.764;2023-11-21T00:38:34;13.70;99.90
35305;DHT22;26433;48.034;-1.764;2023-11-21T00:53:47;13.80;99.90
35305;DHT22;26433;48.034;-1.764;2023-11-21T01:09:01;13.60;99.90
35305;DHT22;26433;48.034;-1.764;2023-11-21T01:24:20;13.50;99.90
35305;DHT22;26433;48.034;-1.764;2023-11-21T01:39:34;13.40;99.90
35305;DHT22;26433;48.034;-1.764;2023-11-21T01:49:43;13.30;99.90
35305;DHT22;26433;48.034;-1.764;2023-11-21T01:54:48;13.20;99.90
35305;DHT22;26433;48.034;-1.764;2023-11-21T01:59:54;13.20;99.90
35305;DHT22;26433;48.034;-1.764;2023-11-21T02:10:04;13.20;99.90
35305;DHT22;26433;48.034;-1.764;2023-11-21T02:15:10;13.20;99.90
35305;DHT22;26433;48.034;-1.764;2023-11-21T02:20:18;13.20;99.90
35305;DHT22;26433;48.034;-1.764;2023-11-21T02:25:23;13.20;99.90
35305;DHT22;26433;48.034;-1.764;2023-11-21T02:40:38;13.50;99.90
35305;DHT22;26433;48.034;-1.764;2023-11-21T02:55:52;13.20;99.90
35305;DHT22;26433;48.034;-1.764;2023-11-21T03:11:04;13.10;99.90
35305;DHT22;26433;48.034;-1.764;2023-11-21T03:16:08;13.30;99.90
35305;DHT22;26433;48.034;-1.764;2023-11-21T03:26:17;13.40;99.90
35305;DHT22;26433;48.034;-1.764;2023-11-21T03:41:30;13.40;99.90
35305;DHT22;26433;48.034;-1.764;2023-11-21T03:46:33;13.70;99.90
35305;DHT22;26433;48.034;-1.764;2023-11-21T03:51:37;13.60;99.90
35305;DHT22;26433;48.034;-1.764;2023-11-21T03:56:42;13.30;99.90
35305;DHT22;26433;48.034;-1.764;2023-11-21T04:11:55;13.10;99.90
35305;DHT22;26433;48.034;-1.764;2023-11-21T04:22:02;12.70;99.90
35305;DHT22;26433;48.034;-1.764;2023-11-21T04:27:07;13.00;99.90
35305;DHT22;26433;48.034;-1.764;2023-11-21T04:42:20;13.10;99.90
35305;DHT22;26433;48.034;-1.764;2023-11-21T04:57:32;12.90;99.90
35305;DHT22;26433;48.034;-1.764;2023-11-21T05:07:40;12.80;99.90
35305;DHT22;26433;48.034;-1.764;2023-11-21T05:12:46;12.90;99.90
35305;DHT22;26433;48.034;-1.764;2023-11-21T05:27:59;12.70;99.90
35305;DHT22;26433;48.034;-1.764;2023-11-21T05:43:15;12.70;99.90
35305;DHT22;26433;48.034;-1.764;2023-11-21T05:58:28;12.50;99.90
35305;DHT22;26433;48.034;-1.764;2023-11-21T06:13:41;12.90;99.90
35305;DHT22;26433;48.034;-1.764;2023-11-21T06:18:45;12.90;99.90
35305;DHT22;26433;48.034;-1.764;2023-11-21T06:23:48;12.90;99.90
35305;DHT22;26433;48.034;-1.764;2023-11-21T06:28:56;12.80;99.90
35305;DHT22;26433;48.034;-1.764;2023-11-21T06:44:11;12.70;99.90
35305;DHT22;26433;48.034;-1.764;2023-11-21T06:54:19;12.70;99.90
35305;DHT22;26433;48.034;-1.764;2023-11-21T06:59:24;12.60;99.90
35305;DHT22;26433;48.034;-1.764;2023-11-21T07:14:37;12.40;99.90
35305;DHT22;26433;48.034;-1.764;2023-11-21T07:29:51;12.30;99.90
35305;DHT22;26433;48.034;-1.764;2023-11-21T07:45:07;12.30;99.90
35305;DHT22;26433;48.034;-1.764;2023-11-21T08:00:21;12.40;99.90
35305;DHT22;26433;48.034;-1.764;2023-11-21T08:15:45;12.60;99.90
35305;DHT22;26433;48.034;-1.764;2023-11-21T08:31:00;12.70;99.90
35305;DHT22;26433;48.034;-1.764;2023-11-21T08:36:07;12.80;99.90
35305;DHT22;26433;48.034;-1.764;2023-11-21T08:46:18;12.90;99.90
35305;DHT22;26433;48.034;-1.764;2023-11-21T09:01:32;13.40;99.90
35305;DHT22;26433;48.034;-1.764;2023-11-21T09:16:45;13.80;99.90
35305;DHT22;26433;48.034;-1.764;2023-11-21T09:31:58;14.60;99.90
35305;DHT22;26433;48.034;-1.764;2023-11-21T09:42:08;14.80;99.90
35305;DHT22;26433;48.034;-1.764;2023-11-21T09:47:16;14.90;99.90
35305;DHT22;26433;48.034;-1.764;2023-11-21T09:52:25;14.80;99.90
35305;DHT22;26433;48.034;-1.764;2023-11-21T09:57:29;14.70;99.90
35305;DHT22;26433;48.034;-1.764;2023-11-21T10:02:35;14.60;99.90
35305;DHT22;26433;48.034;-1.764;2023-11-21T10:07:40;14.50;99.90
35305;DHT22;26433;48.034;-1.764;2023-11-21T10:12:50;14.80;99.90
35305;DHT22;26433;48.034;-1.764;2023-11-21T10:17:56;15.20;99.90
35305;DHT22;26433;48.034;-1.764;2023-11-21T10:23:01;15.00;99.90
35305;DHT22;26433;48.034;-1.764;2023-11-21T10:33:11;15.40;99.90
35305;DHT22;26433;48.034;-1.764;2023-11-21T10:48:25;15.50;99.90
35305;DHT22;26433;48.034;-1.764;2023-11-21T10:53:29;15.50;99.90
35305;DHT22;26433;48.034;-1.764;2023-11-21T10:58:33;14.80;99.90
35305;DHT22;26433;48.034;-1.764;2023-11-21T11:03:40;15.40;99.90
35305;DHT22;26433;48.034;-1.764;2023-11-21T11:08:44;15.30;99.90
35305;DHT22;26433;48.034;-1.764;2023-11-21T11:13:48;15.10;99.90
35305;DHT22;26433;48.034;-1.764;2023-11-21T11:18:53;15.00;99.90
35305;DHT22;26433;48.034;-1.764;2023-11-21T11:24:17;15.00;99.90
35305;DHT22;26433;48.034;-1.764;2023-11-21T11:29:31;14.90;99.90
35305;DHT22;26433;48.034;-1.764;2023-11-21T11:34:44;14.80;99.90
35305;DHT22;26433;48.034;-1.764;2023-11-21T11:39:49;14.90;99.90
35305;DHT22;26433;48.034;-1.764;2023-11-21T11:44:53;14.90;99.90
35305;DHT22;26433;48.034;-1.764;2023-11-21T11:50:01;15.00;99.90
35305;DHT22;26433;48.034;-1.764;2023-11-21T11:55:11;15.10;99.90
35305;DHT22;26433;48.034;-1.764;2023-11-21T12:00:17;15.20;99.90
35305;DHT22;26433;48.034;-1.764;2023-11-21T12:05:25;15.30;99.90
35305;DHT22;26433;48.034;-1.764;2023-11-21T12:10:30;15.40;99.90
35305;DHT22;26433;48.034;-1.764;2023-11-21T12:15:34;15.40;99.90
35305;DHT22;26433;48.034;-1.764;2023-11-21T12:20:41;15.40;99.90
35305;DHT22;26433;48.034;-1.764;2023-11-21T12:25:45;15.40;99.90
35305;DHT22;26433;48.034;-1.764;2023-11-21T12:30:48;15.40;99.90
35305;DHT22;26433;48.034;-1.764;2023-11-21T12:35:54;15.40;99.90
35305;DHT22;26433;48.034;-1.764;2023-11-21T12:40:59;15.40;99.90
35305;DHT22;26433;48.034;-1.764;2023-11-21T12:46:06;15.40;99.90
35305;DHT22;26433;48.034;-1.764;2023-11-21T12:51:13;15.40;99.90
35305;DHT22;26433;48.034;-1.764;2023-11-21T12:56:18;15.20;99.90
35305;DHT22;26433;48.034;-1.764;2023-11-21T13:01:25;15.20;99.90
35305;DHT22;26433;48.034;-1.764;2023-11-21T13:06:32;15.10;99.90
35305;DHT22;26433;48.034;-1.764;2023-11-21T13:11:40;15.00;99.90
35305;DHT22;26433;48.034;-1.764;2023-11-21T13:16:44;15.00;99.90
35305;DHT22;26433;48.034;-1.764;2023-11-21T13:21:50;15.00;99.90
35305;DHT22;26433;48.034;-1.764;2023-11-21T13:26:53;15.00;99.90
35305;DHT22;26433;48.034;-1.764;2023-11-21T13:31:57;15.00;99.90
35305;DHT22;26433;48.034;-1.764;2023-11-21T13:37:03;14.90;99.90
35305;DHT22;26433;48.034;-1.764;2023-11-21T13:42:09;14.90;99.90
35305;DHT22;26433;48.034;-1.764;2023-11-21T13:47:13;14.90;99.90
35305;DHT22;26433;48.034;-1.764;2023-11-21T13:52:18;14.90;99.90
35305;DHT22;26433;48.034;-1.764;2023-11-21T13:57:25;14.90;99.90
35305;DHT22;26433;48.034;-1.764;2023-11-21T14:02:29;14.80;99.90
35305;DHT22;26433;48.034;-1.764;2023-11-21T14:07:41;14.70;99.90
35305;DHT22;26433;48.034;-1.764;2023-11-21T14:12:50;14.60;99.90
35305;DHT22;26433;48.034;-1.764;2023-11-21T14:17:54;14.60;99.90
35305;DHT22;26433;48.034;-1.764;2023-11-21T14:22:59;14.60;99.90
35305;DHT22;26433;48.034;-1.764;2023-11-21T14:28:03;14.60;99.90
35305;DHT22;26433;48.034;-1.764;2023-11-21T14:33:08;14.70;99.90
35305;DHT22;26433;48.034;-1.764;2023-11-21T14:38:15;14.70;99.90
35305;DHT22;26433;48.034;-1.764;2023-11-21T14:43:18;14.70;99.90
35305;DHT22;26433;48.034;-1.764;2023-11-21T14:48:23;14.70;99.90
35305;DHT22;26433;48.034;-1.764;2023-11-21T14:53:45;14.70;99.90
35305;DHT22;26433;48.034;-1.764;2023-11-21T14:58:56;14.60;99.90
35305;DHT22;26433;48.034;-1.764;2023-11-21T15:04:00;14.60;99.90
35305;DHT22;26433;48.034;-1.764;2023-11-21T15:09:05;14.50;99.90
35305;DHT22;26433;48.034;-1.764;2023-11-21T15:14:22;14.50;99.90
35305;DHT22;26433;48.034;-1.764;2023-11-21T15:19:28;14.40;99.90
35305;DHT22;26433;48.034;-1.764;2023-11-21T15:24:35;14.40;99.90
35305;DHT22;26433;48.034;-1.764;2023-11-21T15:29:39;14.30;99.90
35305;DHT22;26433;48.034;-1.764;2023-11-21T15:34:42;14.20;99.90
35305;DHT22;26433;48.034;-1.764;2023-11-21T15:39:47;14.20;99.90
35305;DHT22;26433;48.034;-1.764;2023-11-21T15:44:50;14.10;99.90
35305;DHT22;26433;48.034;-1.764;2023-11-21T15:49:54;14.10;99.90
35305;DHT22;26433;48.034;-1.764;2023-11-21T15:54:59;14.00;99.90
35305;DHT22;26433;48.034;-1.764;2023-11-21T16:00:03;14.00;99.90
35305;DHT22;26433;48.034;-1.764;2023-11-21T16:05:13;13.90;99.90
35305;DHT22;26433;48.034;-1.764;2023-11-21T16:10:20;13.90;99.90
35305;DHT22;26433;48.034;-1.764;2023-11-21T16:15:23;13.90;99.90
35305;DHT22;26433;48.034;-1.764;2023-11-21T16:20:28;13.80;99.90
35305;DHT22;26433;48.034;-1.764;2023-11-21T16:25:34;13.70;99.90
35305;DHT22;26433;48.034;-1.764;2023-11-21T16:30:37;13.60;99.90
35305;DHT22;26433;48.034;-1.764;2023-11-21T16:35:41;13.60;99.90
35305;DHT22;26433;48.034;-1.764;2023-11-21T16:40:45;13.50;99.90
35305;DHT22;26433;48.034;-1.764;2023-11-21T16:45:49;13.50;99.90
35305;DHT22;26433;48.034;-1.764;2023-11-21T16:50:54;13.50;99.90
35305;DHT22;26433;48.034;-1.764;2023-11-21T16:55:58;13.50;99.90
35305;DHT22;26433;48.034;-1.764;2023-11-21T17:01:03;13.50;99.90
35305;DHT22;26433;48.034;-1.764;2023-11-21T17:06:09;13.40;99.90
35305;DHT22;26433;48.034;-1.764;2023-11-21T17:11:14;13.40;99.90
35305;DHT22;26433;48.034;-1.764;2023-11-21T17:16:18;13.30;99.90
35305;DHT22;26433;48.034;-1.764;2023-11-21T17:21:21;13.30;99.90
35305;DHT22;26433;48.034;-1.764;2023-11-21T17:26:35;13.30;99.90
35305;DHT22;26433;48.034;-1.764;2023-11-21T17:31:38;13.30;99.90
35305;DHT22;26433;48.034;-1.764;2023-11-21T17:36:42;13.40;99.90
35305;DHT22;26433;48.034;-1.764;2023-11-21T17:41:47;13.40;99.90
35305;DHT22;26433;48.034;-1.764;2023-11-21T17:46:51;13.40;99.90
35305;DHT22;26433;48.034;-1.764;2023-11-21T17:51:54;13.30;99.90
35305;DHT22;26433;48.034;-1.764;2023-11-21T17:56:59;13.30;99.90
35305;DHT22;26433;48.034;-1.764;2023-11-21T18:02:03;13.30;99.90
35305;DHT22;26433;48.034;-1.764;2023-11-21T18:07:06;13.30;99.90
35305;DHT22;26433;48.034;-1.764;2023-11-21T18:12:11;13.30;99.90
35305;DHT22;26433;48.034;-1.764;2023-11-21T18:22:19;13.20;99.90
35305;DHT22;26433;48.034;-1.764;2023-11-21T18:27:25;13.20;99.90
35305;DHT22;26433;48.034;-1.764;2023-11-21T18:32:30;13.20;99.90
35305;DHT22;26433;48.034;-1.764;2023-11-21T18:37:34;13.20;99.90
35305;DHT22;26433;48.034;-1.764;2023-11-21T18:42:39;13.10;99.90
35305;DHT22;26433;48.034;-1.764;2023-11-21T18:47:47;13.20;99.90
35305;DHT22;26433;48.034;-1.764;2023-11-21T18:52:51;13.20;99.90
35305;DHT22;26433;48.034;-1.764;2023-11-21T18:57:56;13.10;99.90
35305;DHT22;26433;48.034;-1.764;2023-11-21T19:02:59;13.20;99.90
35305;DHT22;26433;48.034;-1.764;2023-11-21T19:08:03;13.10;99.90
35305;DHT22;26433;48.034;-1.764;2023-11-21T19:13:08;13.10;99.90
35305;DHT22;26433;48.034;-1.764;2023-11-21T19:18:11;13.10;99.90
35305;DHT22;26433;48.034;-1.764;2023-11-21T19:23:15;13.20;99.90
35305;DHT22;26433;48.034;-1.764;2023-11-21T19:28:20;13.20;99.90
35305;DHT22;26433;48.034;-1.764;2023-11-21T19:33:24;13.20;99.90
35305;DHT22;26433;48.034;-1.764;2023-11-21T19:38:28;13.10;99.90
35305;DHT22;26433;48.034;-1.764;2023-11-21T19:43:34;13.20;99.90
35305;DHT22;26433;48.034;-1.764;2023-11-21T19:48:38;13.20;99.90
35305;DHT22;26433;48.034;-1.764;2023-11-21T19:53:43;13.20;99.90
35305;DHT22;26433;48.034;-1.764;2023-11-21T19:58:48;13.20;99.90
35305;DHT22;26433;48.034;-1.764;2023-11-21T20:03:52;13.20;99.90
35305;DHT22;26433;48.034;-1.764;2023-11-21T20:08:56;13.20;99.90
35305;DHT22;26433;48.034;-1.764;2023-11-21T20:14:03;13.20;99.90
35305;DHT22;26433;48.034;-1.764;2023-11-21T20:19:06;13.20;99.90
35305;DHT22;26433;48.034;-1.764;2023-11-21T20:24:10;13.20;99.90
35305;DHT22;26433;48.034;-1.764;2023-11-21T20:29:17;13.10;99.90
35305;DHT22;26433;48.034;-1.764;2023-11-21T20:34:20;13.20;99.90
35305;DHT22;26433;48.034;-1.764;2023-11-21T20:39:23;13.20;99.90
35305;DHT22;26433;48.034;-1.764;2023-11-21T20:44:28;13.20;99.90
35305;DHT22;26433;48.034;-1.764;2023-11-21T20:49:32;13.20;99.90
35305;DHT22;26433;48.034;-1.764;2023-11-21T20:54:48;13.20;99.90
35305;DHT22;26433;48.034;-1.764;2023-11-21T20:59:54;13.20;99.90
35305;DHT22;26433;48.034;-1.764;2023-11-21T21:04:57;13.20;99.90
35305;DHT22;26433;48.034;-1.764;2023-11-21T21:10:01;13.20;99.90
35305;DHT22;26433;48.034;-1.764;2023-11-21T21:15:07;13.20;99.90
35305;DHT22;26433;48.034;-1.764;2023-11-21T21:20:14;13.30;99.90
35305;DHT22;26433;48.034;-1.764;2023-11-21T21:25:18;13.30;99.90
35305;DHT22;26433;48.034;-1.764;2023-11-21T21:30:23;13.30;99.90
35305;DHT22;26433;48.034;-1.764;2023-11-21T21:35:29;13.20;99.90
35305;DHT22;26433;48.034;-1.764;2023-11-21T21:40:33;13.30;99.90
35305;DHT22;26433;48.034;-1.764;2023-11-21T21:45:39;13.20;99.90
35305;DHT22;26433;48.034;-1.764;2023-11-21T21:50:43;13.20;99.90
35305;DHT22;26433;48.034;-1.764;2023-11-21T21:55:47;13.10;99.90
35305;DHT22;26433;48.034;-1.764;2023-11-21T22:00:54;13.00;99.90
35305;DHT22;26433;48.034;-1.764;2023-11-21T22:06:00;13.00;99.90
35305;DHT22;26433;48.034;-1.764;2023-11-21T22:11:04;12.90;99.90
35305;DHT22;26433;48.034;-1.764;2023-11-21T22:16:10;12.90;99.90
35305;DHT22;26433;48.034;-1.764;2023-11-21T22:21:13;12.90;99.90
35305;DHT22;26433;48.034;-1.764;2023-11-21T22:26:18;12.80;99.90
35305;DHT22;26433;48.034;-1.764;2023-11-21T22:31:23;12.80;99.90
35305;DHT22;26433;48.034;-1.764;2023-11-21T22:36:26;12.70;99.90
35305;DHT22;26433;48.034;-1.764;2023-11-21T22:41:30;12.60;99.90
35305;DHT22;26433;48.034;-1.764;2023-11-21T22:46:40;12.60;99.90
35305;DHT22;26433;48.034;-1.764;2023-11-21T22:51:44;12.50;99.90
35305;DHT22;26433;48.034;-1.764;2023-11-21T22:56:47;12.40;99.90
35305;DHT22;26433;48.034;-1.764;2023-11-21T23:01:54;12.30;99.90
35305;DHT22;26433;48.034;-1.764;2023-11-21T23:06:57;12.30;99.90
35305;DHT22;26433;48.034;-1.764;2023-11-21T23:12:01;12.30;99.90
35305;DHT22;26433;48.034;-1.764;2023-11-21T23:17:06;12.20;99.90
35305;DHT22;26433;48.034;-1.764;2023-11-21T23:22:10;12.20;99.90
35305;DHT22;26433;48.034;-1.764;2023-11-21T23:27:13;12.20;99.90
35305;DHT22;26433;48.034;-1.764;2023-11-21T23:32:18;12.20;99.90
35305;DHT22;26433;48.034;-1.764;2023-11-21T23:37:23;12.30;99.90
35305;DHT22;26433;48.034;-1.764;2023-11-21T23:42:26;12.30;99.90
35305;DHT22;26433;48.034;-1.764;2023-11-21T23:47:32;12.40;99.90
35305;DHT22;26433;48.034;-1.764;2023-11-21T23:52:35;12.40;99.90
35305;DHT22;26433;48.034;-1.764;2023-11-21T23:57:39;12.50;99.90
